Time;durP1;ratioP1;P1;durP2;ratioP2;P2;SDS_P1;SDS_P2;PMS_P1;PMS_P2;Temp;Humidity;BMP_temperature;BMP_pressure;BME280_temperature;BME280_humidity;BME280_pressure;Samples;Min_cycle;Max_cycle;Signal;HPM_P1;HPM_P2
2023/06/06 00:50:12;;;;;;;12.15;6.95;;;;;;;;;;6312599;22;20194;-92
2023/06/06 00:53:20;;;;;;;10.02;7.15;;;;;;;;;;6304870;22;20254;-92
2023/06/06 00:56:28;;;;;;;10.20;7.07;;;;;;;;;;6322894;22;20145;-93
2023/06/06 00:59:33;;;;;;;11.27;7.30;;;;;;;;;;6306410;22;20177;-93
2023/06/06 01:02:43;;;;;;;11.50;7.72;;;;;;;;;;6308875;22;20166;-92
2023/06/06 01:05:53;;;;;;;10.98;7.55;;;;;;;;;;6322716;22;20153;-92
2023/06/06 01:08:58;;;;;;;12.90;8.43;;;;;;;;;;6303182;22;20173;-93
2023/06/06 01:12:07;;;;;;;12.88;7.97;;;;;;;;;;6321822;22;20164;-92
2023/06/06 01:15:16;;;;;;;13.70;7.25;;;;;;;;;;6303931;22;20165;-92
2023/06/06 01:18:56;;;;;;;10.07;7.50;;;;;;;;;;6319853;22;20189;-93
2023/06/06 01:22:04;;;;;;;10.60;7.15;;;;;;;;;;6303073;22;20177;-93
2023/06/06 01:25:12;;;;;;;12.98;7.95;;;;;;;;;;6304095;22;20177;-93
2023/06/06 01:28:18;;;;;;;13.13;8.00;;;;;;;;;;6322898;22;20203;-91
2023/06/06 01:31:24;;;;;;;11.60;7.50;;;;;;;;;;6322511;22;20170;-92
2023/06/06 01:34:32;;;;;;;21.08;7.45;;;;;;;;;;6306853;22;20172;-93
2023/06/06 01:37:45;;;;;;;11.10;7.60;;;;;;;;;;6324039;22;20219;-92
2023/06/06 01:40:51;;;;;;;15.05;7.25;;;;;;;;;;6325308;22;20168;-92
2023/06/06 01:43:57;;;;;;;11.57;7.05;;;;;;;;;;6325127;22;20180;-92
2023/06/06 01:47:03;;;;;;;9.73;6.15;;;;;;;;;;6306581;22;20261;-91
2023/06/06 01:50:10;;;;;;;12.60;6.78;;;;;;;;;;6325685;22;20639;-93
2023/06/06 01:53:17;;;;;;;10.35;7.05;;;;;;;;;;6306627;22;20169;-94
2023/06/06 01:56:24;;;;;;;10.80;6.80;;;;;;;;;;6311195;22;20165;-92
2023/06/06 01:59:29;;;;;;;13.23;6.88;;;;;;;;;;6310518;22;20196;-94
2023/06/06 02:02:39;;;;;;;8.05;5.38;;;;;;;;;;6291679;22;20165;-91
2023/06/06 02:05:44;;;;;;;8.88;5.88;;;;;;;;;;6328799;22;20188;-92
2023/06/06 02:08:50;;;;;;;8.45;5.18;;;;;;;;;;6326072;22;20188;-92
2023/06/06 02:11:57;;;;;;;8.30;5.50;;;;;;;;;;6309857;22;20172;-92
2023/06/06 02:15:05;;;;;;;13.27;6.03;;;;;;;;;;6330171;22;20149;-91
2023/06/06 02:18:11;;;;;;;8.85;6.28;;;;;;;;;;6329206;22;20169;-92
2023/06/06 02:21:16;;;;;;;10.15;6.35;;;;;;;;;;6329032;22;20149;-91
2023/06/06 02:24:25;;;;;;;13.73;6.13;;;;;;;;;;6293582;22;20162;-91
2023/06/06 02:27:31;;;;;;;11.18;6.38;;;;;;;;;;6324733;22;20254;-92
2023/06/06 02:30:36;;;;;;;10.32;6.43;;;;;;;;;;6306212;22;20185;-94
2023/06/06 02:33:42;;;;;;;10.70;6.70;;;;;;;;;;6307515;22;20161;-93
2023/06/06 02:36:48;;;;;;;7.45;5.45;;;;;;;;;;6325797;22;20165;-91
2023/06/06 02:39:55;;;;;;;11.45;5.22;;;;;;;;;;6306995;22;20241;-92
2023/06/06 02:43:00;;;;;;;8.98;6.13;;;;;;;;;;6304710;22;20173;-93
2023/06/06 02:46:07;;;;;;;10.05;6.13;;;;;;;;;;6304834;22;20184;-92
2023/06/06 02:49:13;;;;;;;9.50;6.30;;;;;;;;;;6305919;22;20184;-93
2023/06/06 02:52:18;;;;;;;12.57;6.00;;;;;;;;;;6323648;22;20616;-94
2023/06/06 02:55:25;;;;;;;12.10;6.47;;;;;;;;;;6322721;22;20169;-92
2023/06/06 02:58:32;;;;;;;13.68;6.50;;;;;;;;;;6321730;22;20189;-92
2023/06/06 03:01:44;;;;;;;9.30;6.07;;;;;;;;;;6323982;22;20204;-94
2023/06/06 03:04:48;;;;;;;9.40;5.60;;;;;;;;;;6305947;22;20241;-94
2023/06/06 03:07:56;;;;;;;8.93;5.85;;;;;;;;;;6322776;22;20491;-93
2023/06/06 03:11:02;;;;;;;10.98;6.15;;;;;;;;;;6321653;22;20604;-94
2023/06/06 03:14:09;;;;;;;9.15;5.82;;;;;;;;;;6323003;22;20161;-94
2023/06/06 03:17:32;;;;;;;9.93;5.65;;;;;;;;;;6321654;22;20165;-93
2023/06/06 03:20:40;;;;;;;9.43;6.55;;;;;;;;;;6321942;22;20192;-92
2023/06/06 03:23:50;;;;;;;11.57;6.30;;;;;;;;;;6306235;22;20169;-93
2023/06/06 03:26:58;;;;;;;8.55;5.43;;;;;;;;;;6304566;22;20153;-92
2023/06/06 03:30:06;;;;;;;9.20;5.63;;;;;;;;;;6324693;22;20157;-94
2023/06/06 03:33:13;;;;;;;9.38;5.53;;;;;;;;;;6307174;22;20195;-92
2023/06/06 03:36:32;;;;;;;7.45;5.72;;;;;;;;;;6307553;22;20211;-90
2023/06/06 03:39:39;;;;;;;8.27;5.13;;;;;;;;;;6323845;22;20205;-92
2023/06/06 03:42:46;;;;;;;9.93;5.70;;;;;;;;;;6322174;22;20173;-92
2023/06/06 03:45:54;;;;;;;8.82;5.57;;;;;;;;;;6321209;22;20174;-93
2023/06/06 03:49:00;;;;;;;10.00;5.90;;;;;;;;;;6303856;22;20189;-93
2023/06/06 03:52:07;;;;;;;6.88;5.28;;;;;;;;;;6305949;22;20165;-92
2023/06/06 03:55:37;;;;;;;8.00;5.00;;;;;;;;;;6305115;22;20216;-93
2023/06/06 03:58:44;;;;;;;10.18;4.85;;;;;;;;;;6304129;22;20160;-92
2023/06/06 04:01:55;;;;;;;9.77;4.63;;;;;;;;;;6307294;22;20218;-93
2023/06/06 04:05:04;;;;;;;4.95;3.70;;;;;;;;;;6326073;22;20199;-93
2023/06/06 04:08:13;;;;;;;6.88;4.35;;;;;;;;;;6323818;22;20164;-94
2023/06/06 04:11:18;;;;;;;5.07;3.83;;;;;;;;;;6322435;22;20173;-93
2023/06/06 04:14:26;;;;;;;7.90;3.80;;;;;;;;;;6302510;22;20161;-92
2023/06/06 04:18:02;;;;;;;6.15;3.90;;;;;;;;;;6305545;22;20145;-92
2023/06/06 04:21:07;;;;;;;22.50;7.00;;;;;;;;;;6305364;22;20169;-92
2023/06/06 04:24:16;;;;;;;7.32;4.10;;;;;;;;;;6304322;22;20165;-91
2023/06/06 04:27:23;;;;;;;5.57;3.80;;;;;;;;;;6305402;22;20542;-93
2023/06/06 04:30:36;;;;;;;8.45;4.47;;;;;;;;;;6305133;22;20207;-92
2023/06/06 04:33:44;;;;;;;6.80;3.70;;;;;;;;;;6306557;22;20187;-92
2023/06/06 04:36:51;;;;;;;6.45;4.00;;;;;;;;;;6324243;22;20173;-92
2023/06/06 04:40:00;;;;;;;7.25;3.90;;;;;;;;;;6323194;22;20208;-93
2023/06/06 04:43:07;;;;;;;8.25;3.83;;;;;;;;;;6321802;22;20239;-93
2023/06/06 04:46:21;;;;;;;5.22;3.50;;;;;;;;;;6306224;22;20223;-91
2023/06/06 04:49:27;;;;;;;6.05;3.72;;;;;;;;;;6309979;22;20240;-92
2023/06/06 04:52:34;;;;;;;10.18;3.88;;;;;;;;;;6291508;22;20178;-92
2023/06/06 04:55:39;;;;;;;9.52;3.38;;;;;;;;;;6290555;22;20174;-92
2023/06/06 04:58:48;;;;;;;5.28;3.10;;;;;;;;;;6291266;22;20289;-92
2023/06/06 05:01:56;;;;;;;7.63;3.70;;;;;;;;;;6291443;22;20505;-92
2023/06/06 05:05:04;;;;;;;6.25;3.60;;;;;;;;;;6293225;22;20165;-93
2023/06/06 05:08:09;;;;;;;6.35;4.10;;;;;;;;;;6293041;22;20173;-92
2023/06/06 05:11:15;;;;;;;6.93;3.58;;;;;;;;;;6294918;22;20249;-94
2023/06/06 05:14:23;;;;;;;9.50;5.75;;;;;;;;;;6293144;22;20165;-93
2023/06/06 05:17:36;;;;;;;11.48;4.88;;;;;;;;;;6292627;22;20169;-95
2023/06/06 05:20:44;;;;;;;8.50;4.30;;;;;;;;;;6294268;22;20193;-92
2023/06/06 05:23:50;;;;;;;8.65;3.67;;;;;;;;;;6295698;22;20166;-94
2023/06/06 05:30:15;;;;;;;5.90;4.30;;;;;;;;;;6293651;22;20166;-95
2023/06/06 05:33:25;;;;;;;7.63;4.25;;;;;;;;;;6294658;22;20260;-93
2023/06/06 05:36:36;;;;;;;7.22;4.85;;;;;;;;;;6294470;22;20170;-91
2023/06/06 05:39:42;;;;;;;11.30;4.93;;;;;;;;;;6293378;22;20198;-94
2023/06/06 05:42:47;;;;;;;7.50;4.90;;;;;;;;;;6290207;22;20280;-93
2023/06/06 05:45:53;;;;;;;7.28;4.80;;;;;;;;;;6293343;22;20189;-93
2023/06/06 18:13:05;;;;;;;3.80;2.40;;;;;;;;;;6325168;22;20186;-94
2023/06/06 18:16:11;;;;;;;3.50;2.50;;;;;;;;;;6308420;22;20215;-94
2023/06/06 18:23:38;;;;;;;5.32;3.20;;;;;;;;;;6330615;22;20156;-96
2023/06/06 18:26:44;;;;;;;5.03;2.97;;;;;;;;;;6310502;22;20534;-93
2023/06/06 18:29:52;;;;;;;3.60;2.45;;;;;;;;;;6308567;22;20165;-94
2023/06/06 18:32:57;;;;;;;3.28;2.47;;;;;;;;;;6308438;22;20218;-95
2023/06/06 18:36:02;;;;;;;7.70;3.35;;;;;;;;;;6311851;22;20219;-95
2023/06/06 18:39:08;;;;;;;8.82;3.47;;;;;;;;;;6312600;22;20169;-95
2023/06/06 18:42:14;;;;;;;3.75;2.70;;;;;;;;;;6310138;22;20153;-96
2023/06/06 18:45:22;;;;;;;4.13;3.20;;;;;;;;;;6311910;22;20145;-95
